Saint Barthelemy, St. Barthelemy

4:19 PM AST on March 04, 2015 (GMT -0400)
Lorient | Change Station
CLOSE
Current Station
Personal Weather Station
Location: Saint Barthélémy,
Elevation: 33 ft
Nearby Weather Stations

Elev 33 ft 17.91 °N, 62.82 °W | Updated 8 minutes ago

Scattered Clouds
Scattered Clouds
80.7 °F
Feels Like 84 °F
N
16.0
Wind Variable Wind from NE
Gusts 22.0 mph

Today
High -- | Low -- °F
--% Chance of Precip.
Yesterday
High -- | Low -- °F
Precip. -- in
6:28 AM 6:18 PM
Waxing Gibbous, 99% visible
Pressure 30.04 in
Visibility 6.2 miles
Clouds Few 2100 ft
Scattered Clouds 4500 ft
Heat Index 84 °F
Dew Point 69 °F
Humidity 68%
Rainfall 0.02 in
Snow Depth Not available.
UV 4 out of 12
Pollen Not available.
Air Quality Not available.
Flu Activity Not available.
METAR TNCM 042000Z 07017KT 9999 VCSH FEW021 SCT045 27/18 Q1017 A3005 NOSIG RMK SHRA WSW

More Conditions Fewer Conditions

Pressure 30.04 in
Visibility 6.2 miles
Clouds Few 2100 ft
Scattered Clouds 4500 ft
Heat Index 84 °F
Dew Point 69 °F
Humidity 68%
Rainfall 0.02 in
Snow Depth Not available.
UV 4 out of 12
Pollen Not available.
Air Quality Not available.
Flu Activity Not available.
METAR TNCM 042000Z 07017KT 9999 VCSH FEW021 SCT045 27/18 Q1017 A3005 NOSIG RMK SHRA WSW

More Conditions Fewer Conditions

10-Day Weather Forecast

Almanac

Astronomy

Mar. 04, 2015 Rise Set
Actual Time
Civil Twilight
Nautical Twilight
Astronomical Twilight
Moon
Length of Visible Light
Length of Day
Tomorrow will be .
, % of the Moon is Illuminated

Today's Extremes

Country Highs Country Lows

Community

WunderPhotos

Upload Photos

1,802,567 photos uploaded!

WunderBlogs® & News

Nearby

Air Quality

  Air Quality AQ Index Pollutant
Not available.

Snow Depth

Station Depth Elevation

Earthquake Activity

City Distance Mag. Time & Date
Minimum magnitude displayed is 2.5.

Coastal Water Temperatures

Place Temperature

Nearby Weather Stations